sensor_id;sensor_type;location;lat;lon;timestamp;P1;durP1;ratioP1;P2;durP2;ratioP2
37288;SDS011;23174;49.462;11.000;2024-03-22T00:01:41;12.13;;;11.02;;
37288;SDS011;23174;49.462;11.000;2024-03-22T00:03:41;12.15;;;10.95;;
37288;SDS011;23174;49.462;11.000;2024-03-22T00:05:42;13.90;;;11.23;;
37288;SDS011;23174;49.462;11.000;2024-03-22T00:07:43;11.85;;;10.65;;
37288;SDS011;23174;49.462;11.000;2024-03-22T00:09:43;13.23;;;10.88;;
37288;SDS011;23174;49.462;11.000;2024-03-22T00:11:44;14.07;;;12.25;;
37288;SDS011;23174;49.462;11.000;2024-03-22T00:13:44;11.10;;;10.10;;
37288;SDS011;23174;49.462;11.000;2024-03-22T00:15:45;11.70;;;10.60;;
37288;SDS011;23174;49.462;11.000;2024-03-22T00:17:45;11.85;;;10.57;;
37288;SDS011;23174;49.462;11.000;2024-03-22T00:19:46;11.35;;;10.32;;
37288;SDS011;23174;49.462;11.000;2024-03-22T00:21:46;12.15;;;10.93;;
37288;SDS011;23174;49.462;11.000;2024-03-22T00:23:47;11.38;;;10.30;;
37288;SDS011;23174;49.462;11.000;2024-03-22T00:25:47;12.20;;;11.05;;
37288;SDS011;23174;49.462;11.000;2024-03-22T00:27:47;11.52;;;10.40;;
37288;SDS011;23174;49.462;11.000;2024-03-22T00:29:48;13.75;;;11.43;;
37288;SDS011;23174;49.462;11.000;2024-03-22T00:31:48;12.25;;;11.05;;
37288;SDS011;23174;49.462;11.000;2024-03-22T00:33:49;12.27;;;11.02;;
37288;SDS011;23174;49.462;11.000;2024-03-22T00:35:49;12.23;;;10.70;;
37288;SDS011;23174;49.462;11.000;2024-03-22T00:37:50;11.77;;;10.65;;
37288;SDS011;23174;49.462;11.000;2024-03-22T00:39:50;12.00;;;10.60;;
37288;SDS011;23174;49.462;11.000;2024-03-22T00:41:50;10.82;;;9.82;;
37288;SDS011;23174;49.462;11.000;2024-03-22T00:43:51;10.07;;;9.07;;
37288;SDS011;23174;49.462;11.000;2024-03-22T00:45:51;11.05;;;9.90;;
37288;SDS011;23174;49.462;11.000;2024-03-22T00:47:52;14.32;;;10.15;;
37288;SDS011;23174;49.462;11.000;2024-03-22T00:49:52;10.77;;;9.73;;
37288;SDS011;23174;49.462;11.000;2024-03-22T00:51:53;11.95;;;10.30;;
37288;SDS011;23174;49.462;11.000;2024-03-22T00:53:55;11.60;;;10.40;;
37288;SDS011;23174;49.462;11.000;2024-03-22T00:55:55;11.43;;;10.32;;
37288;SDS011;23174;49.462;11.000;2024-03-22T00:57:58;12.05;;;10.88;;
37288;SDS011;23174;49.462;11.000;2024-03-22T00:59:59;11.60;;;10.50;;
37288;SDS011;23174;49.462;11.000;2024-03-22T01:01:59;11.18;;;10.18;;
37288;SDS011;23174;49.462;11.000;2024-03-22T01:04:00;12.35;;;10.90;;
37288;SDS011;23174;49.462;11.000;2024-03-22T01:06:00;12.05;;;10.93;;
37288;SDS011;23174;49.462;11.000;2024-03-22T01:08:01;11.85;;;10.75;;
37288;SDS011;23174;49.462;11.000;2024-03-22T01:10:04;12.15;;;10.15;;
37288;SDS011;23174;49.462;11.000;2024-03-22T01:12:05;11.13;;;9.80;;
37288;SDS011;23174;49.462;11.000;2024-03-22T01:14:06;11.52;;;10.40;;
37288;SDS011;23174;49.462;11.000;2024-03-22T01:16:06;11.32;;;10.30;;
37288;SDS011;23174;49.462;11.000;2024-03-22T01:18:09;11.73;;;10.40;;
37288;SDS011;23174;49.462;11.000;2024-03-22T01:20:10;10.68;;;9.77;;
37288;SDS011;23174;49.462;11.000;2024-03-22T01:22:10;12.38;;;10.27;;
37288;SDS011;23174;49.462;11.000;2024-03-22T01:24:11;12.23;;;11.00;;
37288;SDS011;23174;49.462;11.000;2024-03-22T01:26:11;11.00;;;9.98;;
37288;SDS011;23174;49.462;11.000;2024-03-22T01:28:12;11.27;;;10.18;;
37288;SDS011;23174;49.462;11.000;2024-03-22T01:30:12;12.75;;;11.52;;
37288;SDS011;23174;49.462;11.000;2024-03-22T01:32:13;12.23;;;9.82;;
37288;SDS011;23174;49.462;11.000;2024-03-22T01:34:14;11.18;;;10.13;;
37288;SDS011;23174;49.462;11.000;2024-03-22T01:36:14;11.05;;;10.02;;
37288;SDS011;23174;49.462;11.000;2024-03-22T01:38:15;11.27;;;10.15;;
37288;SDS011;23174;49.462;11.000;2024-03-22T01:40:15;11.82;;;10.63;;
37288;SDS011;23174;49.462;11.000;2024-03-22T01:42:16;10.95;;;9.90;;
37288;SDS011;23174;49.462;11.000;2024-03-22T01:44:17;12.98;;;10.70;;
37288;SDS011;23174;49.462;11.000;2024-03-22T01:46:17;11.35;;;10.25;;
37288;SDS011;23174;49.462;11.000;2024-03-22T01:48:18;12.80;;;11.50;;
37288;SDS011;23174;49.462;11.000;2024-03-22T01:50:22;11.60;;;10.43;;
37288;SDS011;23174;49.462;11.000;2024-03-22T01:52:23;15.55;;;11.52;;
37288;SDS011;23174;49.462;11.000;2024-03-22T01:54:24;11.55;;;9.85;;
37288;SDS011;23174;49.462;11.000;2024-03-22T01:56:24;12.07;;;10.88;;
37288;SDS011;23174;49.462;11.000;2024-03-22T01:58:25;12.02;;;10.57;;
37288;SDS011;23174;49.462;11.000;2024-03-22T02:00:25;12.05;;;10.68;;
37288;SDS011;23174;49.462;11.000;2024-03-22T02:02:26;11.65;;;10.65;;
37288;SDS011;23174;49.462;11.000;2024-03-22T02:04:26;12.45;;;11.23;;
37288;SDS011;23174;49.462;11.000;2024-03-22T02:06:27;11.63;;;10.38;;
37288;SDS011;23174;49.462;11.000;2024-03-22T02:08:27;11.38;;;10.35;;
37288;SDS011;23174;49.462;11.000;2024-03-22T02:10:28;11.75;;;10.65;;
37288;SDS011;23174;49.462;11.000;2024-03-22T02:12:28;12.07;;;11.07;;
37288;SDS011;23174;49.462;11.000;2024-03-22T02:14:29;11.23;;;10.05;;
37288;SDS011;23174;49.462;11.000;2024-03-22T02:16:29;14.45;;;10.75;;
37288;SDS011;23174;49.462;11.000;2024-03-22T02:18:30;14.35;;;10.68;;
37288;SDS011;23174;49.462;11.000;2024-03-22T02:20:30;12.85;;;11.55;;
37288;SDS011;23174;49.462;11.000;2024-03-22T02:22:31;12.05;;;10.85;;
37288;SDS011;23174;49.462;11.000;2024-03-22T02:24:31;11.40;;;10.30;;
37288;SDS011;23174;49.462;11.000;2024-03-22T02:26:32;11.73;;;10.70;;
37288;SDS011;23174;49.462;11.000;2024-03-22T02:28:32;11.43;;;10.23;;
37288;SDS011;23174;49.462;11.000;2024-03-22T02:30:34;11.20;;;10.10;;
37288;SDS011;23174;49.462;11.000;2024-03-22T02:32:34;11.23;;;9.95;;
37288;SDS011;23174;49.462;11.000;2024-03-22T02:34:35;11.18;;;10.15;;
37288;SDS011;23174;49.462;11.000;2024-03-22T02:36:35;11.27;;;9.98;;
37288;SDS011;23174;49.462;11.000;2024-03-22T02:38:36;11.45;;;10.25;;
37288;SDS011;23174;49.462;11.000;2024-03-22T02:40:36;11.13;;;10.13;;
37288;SDS011;23174;49.462;11.000;2024-03-22T02:42:37;11.73;;;10.65;;
37288;SDS011;23174;49.462;11.000;2024-03-22T02:44:37;11.95;;;9.98;;
37288;SDS011;23174;49.462;11.000;2024-03-22T02:46:42;12.98;;;11.35;;
37288;SDS011;23174;49.462;11.000;2024-03-22T02:48:42;11.10;;;9.88;;
37288;SDS011;23174;49.462;11.000;2024-03-22T02:50:43;11.35;;;10.18;;
37288;SDS011;23174;49.462;11.000;2024-03-22T02:52:43;11.40;;;10.07;;
37288;SDS011;23174;49.462;11.000;2024-03-22T02:54:44;11.25;;;10.20;;
37288;SDS011;23174;49.462;11.000;2024-03-22T02:56:44;10.45;;;9.43;;
37288;SDS011;23174;49.462;11.000;2024-03-22T02:58:45;11.80;;;10.60;;
37288;SDS011;23174;49.462;11.000;2024-03-22T03:00:45;10.75;;;9.63;;
37288;SDS011;23174;49.462;11.000;2024-03-22T03:02:46;11.23;;;10.02;;
37288;SDS011;23174;49.462;11.000;2024-03-22T03:04:46;10.80;;;9.57;;
37288;SDS011;23174;49.462;11.000;2024-03-22T03:06:47;11.57;;;10.02;;
37288;SDS011;23174;49.462;11.000;2024-03-22T03:08:47;11.07;;;10.07;;
37288;SDS011;23174;49.462;11.000;2024-03-22T03:10:48;10.55;;;9.65;;
37288;SDS011;23174;49.462;11.000;2024-03-22T03:12:48;10.25;;;9.35;;
37288;SDS011;23174;49.462;11.000;2024-03-22T03:14:49;10.65;;;9.65;;
37288;SDS011;23174;49.462;11.000;2024-03-22T03:16:49;10.52;;;9.48;;
37288;SDS011;23174;49.462;11.000;2024-03-22T03:18:50;10.50;;;9.70;;
37288;SDS011;23174;49.462;11.000;2024-03-22T03:20:50;10.73;;;9.82;;
37288;SDS011;23174;49.462;11.000;2024-03-22T03:22:51;13.90;;;10.18;;
37288;SDS011;23174;49.462;11.000;2024-03-22T03:24:51;10.93;;;9.82;;
37288;SDS011;23174;49.462;11.000;2024-03-22T03:26:51;10.63;;;9.55;;
37288;SDS011;23174;49.462;11.000;2024-03-22T03:28:52;9.70;;;8.75;;
37288;SDS011;23174;49.462;11.000;2024-03-22T03:30:54;11.07;;;9.90;;
37288;SDS011;23174;49.462;11.000;2024-03-22T03:32:55;11.30;;;9.95;;
37288;SDS011;23174;49.462;11.000;2024-03-22T03:34:55;10.45;;;9.60;;
37288;SDS011;23174;49.462;11.000;2024-03-22T03:36:56;9.95;;;8.95;;
37288;SDS011;23174;49.462;11.000;2024-03-22T03:38:58;11.82;;;10.63;;
37288;SDS011;23174;49.462;11.000;2024-03-22T03:40:58;10.93;;;9.82;;
37288;SDS011;23174;49.462;11.000;2024-03-22T03:42:59;10.88;;;9.38;;
37288;SDS011;23174;49.462;11.000;2024-03-22T03:44:59;10.57;;;9.52;;
37288;SDS011;23174;49.462;11.000;2024-03-22T03:47:00;10.30;;;9.40;;
37288;SDS011;23174;49.462;11.000;2024-03-22T03:49:01;10.68;;;9.52;;
37288;SDS011;23174;49.462;11.000;2024-03-22T03:51:02;10.85;;;9.93;;
37288;SDS011;23174;49.462;11.000;2024-03-22T03:53:03;10.48;;;9.43;;
37288;SDS011;23174;49.462;11.000;2024-03-22T03:55:03;9.77;;;8.90;;
37288;SDS011;23174;49.462;11.000;2024-03-22T03:57:04;10.52;;;9.43;;
37288;SDS011;23174;49.462;11.000;2024-03-22T03:59:05;11.82;;;9.68;;
37288;SDS011;23174;49.462;11.000;2024-03-22T04:01:08;9.75;;;8.85;;
37288;SDS011;23174;49.462;11.000;2024-03-22T04:03:09;9.82;;;8.82;;
37288;SDS011;23174;49.462;11.000;2024-03-22T04:05:09;9.90;;;9.00;;
37288;SDS011;23174;49.462;11.000;2024-03-22T04:07:10;9.95;;;8.95;;
37288;SDS011;23174;49.462;11.000;2024-03-22T04:09:10;10.23;;;8.65;;
37288;SDS011;23174;49.462;11.000;2024-03-22T04:11:11;8.93;;;8.13;;
37288;SDS011;23174;49.462;11.000;2024-03-22T04:13:11;9.65;;;8.77;;
37288;SDS011;23174;49.462;11.000;2024-03-22T04:15:12;10.90;;;8.88;;
37288;SDS011;23174;49.462;11.000;2024-03-22T04:17:12;9.57;;;8.70;;
37288;SDS011;23174;49.462;11.000;2024-03-22T04:19:13;9.35;;;8.45;;
37288;SDS011;23174;49.462;11.000;2024-03-22T04:21:13;9.10;;;8.40;;
37288;SDS011;23174;49.462;11.000;2024-03-22T04:23:14;9.02;;;8.18;;
37288;SDS011;23174;49.462;11.000;2024-03-22T04:25:14;9.75;;;8.85;;
37288;SDS011;23174;49.462;11.000;2024-03-22T04:27:15;9.95;;;8.98;;
37288;SDS011;23174;49.462;11.000;2024-03-22T04:29:15;10.55;;;9.55;;
37288;SDS011;23174;49.462;11.000;2024-03-22T04:31:16;11.02;;;9.93;;
37288;SDS011;23174;49.462;11.000;2024-03-22T04:33:16;11.80;;;9.35;;
37288;SDS011;23174;49.462;11.000;2024-03-22T04:35:17;11.18;;;10.05;;
37288;SDS011;23174;49.462;11.000;2024-03-22T04:37:17;11.75;;;10.15;;
37288;SDS011;23174;49.462;11.000;2024-03-22T04:39:21;11.52;;;10.43;;
37288;SDS011;23174;49.462;11.000;2024-03-22T04:41:24;11.93;;;10.88;;
37288;SDS011;23174;49.462;11.000;2024-03-22T04:43:24;12.18;;;10.88;;
37288;SDS011;23174;49.462;11.000;2024-03-22T04:45:25;13.00;;;10.48;;
37288;SDS011;23174;49.462;11.000;2024-03-22T04:47:26;12.70;;;10.60;;
37288;SDS011;23174;49.462;11.000;2024-03-22T04:49:26;12.55;;;11.25;;
37288;SDS011;23174;49.462;11.000;2024-03-22T04:51:27;13.73;;;12.52;;
37288;SDS011;23174;49.462;11.000;2024-03-22T04:53:27;14.70;;;12.02;;
37288;SDS011;23174;49.462;11.000;2024-03-22T04:55:28;12.63;;;11.40;;
37288;SDS011;23174;49.462;11.000;2024-03-22T04:57:28;12.30;;;11.10;;
37288;SDS011;23174;49.462;11.000;2024-03-22T04:59:29;12.85;;;11.73;;
37288;SDS011;23174;49.462;11.000;2024-03-22T05:01:30;14.75;;;11.27;;
37288;SDS011;23174;49.462;11.000;2024-03-22T05:03:30;13.27;;;10.93;;
37288;SDS011;23174;49.462;11.000;2024-03-22T05:05:31;12.60;;;10.93;;
37288;SDS011;23174;49.462;11.000;2024-03-22T05:07:31;11.23;;;10.20;;
37288;SDS011;23174;49.462;11.000;2024-03-22T05:09:32;12.32;;;9.95;;
37288;SDS011;23174;49.462;11.000;2024-03-22T05:11:32;14.02;;;11.05;;
37288;SDS011;23174;49.462;11.000;2024-03-22T05:13:33;10.80;;;9.80;;
37288;SDS011;23174;49.462;11.000;2024-03-22T05:15:33;11.35;;;10.35;;
37288;SDS011;23174;49.462;11.000;2024-03-22T05:17:34;12.95;;;11.50;;
37288;SDS011;23174;49.462;11.000;2024-03-22T05:19:34;13.98;;;11.18;;
37288;SDS011;23174;49.462;11.000;2024-03-22T05:21:35;13.02;;;10.60;;
37288;SDS011;23174;49.462;11.000;2024-03-22T05:23:35;12.27;;;11.07;;
37288;SDS011;23174;49.462;11.000;2024-03-22T05:25:36;15.07;;;11.20;;
37288;SDS011;23174;49.462;11.000;2024-03-22T05:27:36;14.10;;;12.27;;
37288;SDS011;23174;49.462;11.000;2024-03-22T05:29:37;14.50;;;12.48;;
37288;SDS011;23174;49.462;11.000;2024-03-22T05:31:45;14.73;;;11.45;;
37288;SDS011;23174;49.462;11.000;2024-03-22T05:33:47;13.60;;;12.23;;
37288;SDS011;23174;49.462;11.000;2024-03-22T05:35:48;13.55;;;12.13;;
37288;SDS011;23174;49.462;11.000;2024-03-22T05:37:48;12.75;;;11.45;;
37288;SDS011;23174;49.462;11.000;2024-03-22T05:39:49;12.88;;;10.80;;
37288;SDS011;23174;49.462;11.000;2024-03-22T05:41:49;14.65;;;11.90;;
37288;SDS011;23174;49.462;11.000;2024-03-22T05:43:50;10.73;;;9.63;;
37288;SDS011;23174;49.462;11.000;2024-03-22T05:45:50;14.52;;;10.75;;
37288;SDS011;23174;49.462;11.000;2024-03-22T05:47:51;11.85;;;10.55;;
37288;SDS011;23174;49.462;11.000;2024-03-22T05:49:51;13.38;;;11.35;;
37288;SDS011;23174;49.462;11.000;2024-03-22T05:51:52;12.38;;;11.02;;
37288;SDS011;23174;49.462;11.000;2024-03-22T05:53:53;13.82;;;11.43;;
37288;SDS011;23174;49.462;11.000;2024-03-22T05:55:53;15.52;;;10.38;;
37288;SDS011;23174;49.462;11.000;2024-03-22T05:57:54;12.15;;;10.73;;
37288;SDS011;23174;49.462;11.000;2024-03-22T05:59:54;12.15;;;10.68;;
37288;SDS011;23174;49.462;11.000;2024-03-22T06:01:54;11.15;;;9.95;;
37288;SDS011;23174;49.462;11.000;2024-03-22T06:03:55;11.35;;;10.25;;
37288;SDS011;23174;49.462;11.000;2024-03-22T06:05:55;12.40;;;9.88;;
37288;SDS011;23174;49.462;11.000;2024-03-22T06:07:59;13.75;;;11.68;;
37288;SDS011;23174;49.462;11.000;2024-03-22T06:09:59;15.57;;;11.02;;
37288;SDS011;23174;49.462;11.000;2024-03-22T06:12:00;15.43;;;11.35;;
37288;SDS011;23174;49.462;11.000;2024-03-22T06:14:02;16.50;;;11.02;;
37288;SDS011;23174;49.462;11.000;2024-03-22T06:16:02;13.55;;;12.05;;
37288;SDS011;23174;49.462;11.000;2024-03-22T06:18:03;12.63;;;11.18;;
37288;SDS011;23174;49.462;11.000;2024-03-22T06:20:04;16.70;;;11.10;;
37288;SDS011;23174;49.462;11.000;2024-03-22T06:22:05;14.07;;;11.02;;
37288;SDS011;23174;49.462;11.000;2024-03-22T06:24:06;11.60;;;10.48;;
37288;SDS011;23174;49.462;11.000;2024-03-22T06:26:07;12.55;;;10.82;;
37288;SDS011;23174;49.462;11.000;2024-03-22T06:28:07;12.98;;;11.00;;
37288;SDS011;23174;49.462;11.000;2024-03-22T06:30:08;11.55;;;10.38;;
37288;SDS011;23174;49.462;11.000;2024-03-22T06:32:09;14.95;;;10.15;;
37288;SDS011;23174;49.462;11.000;2024-03-22T06:34:09;15.45;;;10.38;;
37288;SDS011;23174;49.462;11.000;2024-03-22T06:36:10;12.25;;;10.77;;
37288;SDS011;23174;49.462;11.000;2024-03-22T06:38:10;12.05;;;10.82;;
37288;SDS011;23174;49.462;11.000;2024-03-22T06:40:11;10.57;;;9.70;;
37288;SDS011;23174;49.462;11.000;2024-03-22T06:42:12;12.32;;;10.70;;
37288;SDS011;23174;49.462;11.000;2024-03-22T06:44:12;12.07;;;10.75;;
37288;SDS011;23174;49.462;11.000;2024-03-22T06:46:13;15.35;;;10.25;;
37288;SDS011;23174;49.462;11.000;2024-03-22T06:48:14;12.20;;;10.40;;
37288;SDS011;23174;49.462;11.000;2024-03-22T06:50:15;14.43;;;11.02;;
37288;SDS011;23174;49.462;11.000;2024-03-22T06:52:17;11.38;;;10.23;;
37288;SDS011;23174;49.462;11.000;2024-03-22T06:54:19;12.18;;;10.25;;
37288;SDS011;23174;49.462;11.000;2024-03-22T06:56:19;11.57;;;10.45;;
37288;SDS011;23174;49.462;11.000;2024-03-22T06:58:20;14.65;;;10.07;;
37288;SDS011;23174;49.462;11.000;2024-03-22T07:00:21;12.20;;;10.13;;
37288;SDS011;23174;49.462;11.000;2024-03-22T07:02:21;11.30;;;10.20;;
37288;SDS011;23174;49.462;11.000;2024-03-22T07:04:22;13.43;;;11.90;;
37288;SDS011;23174;49.462;11.000;2024-03-22T07:09:00;14.23;;;11.13;;
37288;SDS011;23174;49.462;11.000;2024-03-22T07:11:04;11.32;;;10.20;;
37288;SDS011;23174;49.462;11.000;2024-03-22T07:13:06;12.55;;;10.70;;
37288;SDS011;23174;49.462;11.000;2024-03-22T07:15:06;12.90;;;10.52;;
37288;SDS011;23174;49.462;11.000;2024-03-22T07:17:07;12.20;;;9.38;;
37288;SDS011;23174;49.462;11.000;2024-03-22T07:19:08;14.48;;;10.57;;
37288;SDS011;23174;49.462;11.000;2024-03-22T07:21:08;14.77;;;10.95;;
37288;SDS011;23174;49.462;11.000;2024-03-22T07:23:09;11.57;;;10.38;;
37288;SDS011;23174;49.462;11.000;2024-03-22T07:25:09;11.52;;;10.00;;
37288;SDS011;23174;49.462;11.000;2024-03-22T07:27:10;15.98;;;10.20;;
37288;SDS011;23174;49.462;11.000;2024-03-22T07:29:11;11.80;;;10.60;;
37288;SDS011;23174;49.462;11.000;2024-03-22T07:31:11;13.27;;;10.35;;
37288;SDS011;23174;49.462;11.000;2024-03-22T07:33:12;13.95;;;11.45;;
37288;SDS011;23174;49.462;11.000;2024-03-22T07:35:20;11.45;;;10.35;;
37288;SDS011;23174;49.462;11.000;2024-03-22T07:37:21;13.43;;;10.00;;
37288;SDS011;23174;49.462;11.000;2024-03-22T07:39:21;12.25;;;9.18;;
37288;SDS011;23174;49.462;11.000;2024-03-22T07:41:22;12.23;;;9.75;;
37288;SDS011;23174;49.462;11.000;2024-03-22T07:43:22;14.75;;;10.55;;
37288;SDS011;23174;49.462;11.000;2024-03-22T07:45:23;13.20;;;9.52;;
37288;SDS011;23174;49.462;11.000;2024-03-22T07:47:23;14.10;;;10.00;;
37288;SDS011;23174;49.462;11.000;2024-03-22T07:49:24;13.77;;;10.55;;
37288;SDS011;23174;49.462;11.000;2024-03-22T07:51:24;12.95;;;9.93;;
37288;SDS011;23174;49.462;11.000;2024-03-22T07:53:25;11.90;;;10.35;;
37288;SDS011;23174;49.462;11.000;2024-03-22T07:55:25;14.15;;;9.90;;
37288;SDS011;23174;49.462;11.000;2024-03-22T07:57:26;11.82;;;9.85;;
37288;SDS011;23174;49.462;11.000;2024-03-22T07:59:26;14.27;;;10.18;;
37288;SDS011;23174;49.462;11.000;2024-03-22T08:01:27;15.30;;;9.88;;
37288;SDS011;23174;49.462;11.000;2024-03-22T08:03:27;17.58;;;9.88;;
37288;SDS011;23174;49.462;11.000;2024-03-22T08:05:28;14.43;;;10.27;;
37288;SDS011;23174;49.462;11.000;2024-03-22T08:07:28;11.43;;;9.63;;
37288;SDS011;23174;49.462;11.000;2024-03-22T08:09:29;18.55;;;10.43;;
37288;SDS011;23174;49.462;11.000;2024-03-22T08:11:29;14.40;;;10.15;;
37288;SDS011;23174;49.462;11.000;2024-03-22T08:13:30;13.98;;;10.77;;
37288;SDS011;23174;49.462;11.000;2024-03-22T08:15:31;11.85;;;10.65;;
37288;SDS011;23174;49.462;11.000;2024-03-22T08:17:31;17.52;;;10.68;;
37288;SDS011;23174;49.462;11.000;2024-03-22T08:19:32;12.18;;;10.80;;
37288;SDS011;23174;49.462;11.000;2024-03-22T08:21:32;14.52;;;10.43;;
37288;SDS011;23174;49.462;11.000;2024-03-22T08:23:33;12.18;;;10.25;;
37288;SDS011;23174;49.462;11.000;2024-03-22T08:25:34;13.55;;;10.50;;
37288;SDS011;23174;49.462;11.000;2024-03-22T08:27:34;17.52;;;9.85;;
37288;SDS011;23174;49.462;11.000;2024-03-22T08:29:35;12.75;;;9.35;;
37288;SDS011;23174;49.462;11.000;2024-03-22T08:31:35;12.93;;;10.70;;
37288;SDS011;23174;49.462;11.000;2024-03-22T08:33:36;12.25;;;9.40;;
37288;SDS011;23174;49.462;11.000;2024-03-22T08:35:36;14.27;;;10.05;;
37288;SDS011;23174;49.462;11.000;2024-03-22T08:37:37;11.70;;;10.50;;
37288;SDS011;23174;49.462;11.000;2024-03-22T08:39:37;14.70;;;10.32;;
37288;SDS011;23174;49.462;11.000;2024-03-22T08:41:38;18.80;;;10.45;;
37288;SDS011;23174;49.462;11.000;2024-03-22T08:43:38;14.30;;;11.10;;
37288;SDS011;23174;49.462;11.000;2024-03-22T08:45:39;14.82;;;10.90;;
37288;SDS011;23174;49.462;11.000;2024-03-22T08:47:39;11.45;;;10.25;;
37288;SDS011;23174;49.462;11.000;2024-03-22T08:49:40;16.98;;;11.45;;
37288;SDS011;23174;49.462;11.000;2024-03-22T08:51:43;15.98;;;12.18;;
37288;SDS011;23174;49.462;11.000;2024-03-22T08:53:43;14.23;;;11.27;;
37288;SDS011;23174;49.462;11.000;2024-03-22T08:55:47;11.95;;;10.15;;
37288;SDS011;23174;49.462;11.000;2024-03-22T08:57:48;15.40;;;10.60;;
37288;SDS011;23174;49.462;11.000;2024-03-22T08:59:49;13.27;;;10.82;;
37288;SDS011;23174;49.462;11.000;2024-03-22T09:01:49;13.13;;;10.88;;
37288;SDS011;23174;49.462;11.000;2024-03-22T09:03:50;12.75;;;11.10;;
37288;SDS011;23174;49.462;11.000;2024-03-22T09:05:54;15.95;;;10.73;;
37288;SDS011;23174;49.462;11.000;2024-03-22T09:07:55;13.43;;;10.20;;
37288;SDS011;23174;49.462;11.000;2024-03-22T09:09:57;13.10;;;9.98;;
37288;SDS011;23174;49.462;11.000;2024-03-22T09:11:57;14.63;;;10.43;;
37288;SDS011;23174;49.462;11.000;2024-03-22T09:13:58;15.48;;;10.73;;
37288;SDS011;23174;49.462;11.000;2024-03-22T09:15:58;12.45;;;11.20;;
37288;SDS011;23174;49.462;11.000;2024-03-22T09:17:59;11.73;;;10.50;;
37288;SDS011;23174;49.462;11.000;2024-03-22T09:19:59;12.85;;;11.52;;
37288;SDS011;23174;49.462;11.000;2024-03-22T09:22:01;11.80;;;10.43;;
37288;SDS011;23174;49.462;11.000;2024-03-22T09:24:03;12.27;;;10.60;;
37288;SDS011;23174;49.462;11.000;2024-03-22T09:26:03;11.90;;;10.05;;
37288;SDS011;23174;49.462;11.000;2024-03-22T09:28:05;12.77;;;11.57;;
37288;SDS011;23174;49.462;11.000;2024-03-22T09:30:06;12.20;;;11.00;;
37288;SDS011;23174;49.462;11.000;2024-03-22T09:32:07;11.98;;;10.70;;
37288;SDS011;23174;49.462;11.000;2024-03-22T09:34:07;16.92;;;11.02;;
37288;SDS011;23174;49.462;11.000;2024-03-22T09:36:08;11.93;;;10.75;;
37288;SDS011;23174;49.462;11.000;2024-03-22T09:38:09;13.35;;;10.68;;
37288;SDS011;23174;49.462;11.000;2024-03-22T09:40:09;13.25;;;11.07;;
37288;SDS011;23174;49.462;11.000;2024-03-22T09:42:13;11.40;;;10.38;;
37288;SDS011;23174;49.462;11.000;2024-03-22T09:44:20;11.75;;;10.70;;
37288;SDS011;23174;49.462;11.000;2024-03-22T09:46:21;11.65;;;10.65;;
37288;SDS011;23174;49.462;11.000;2024-03-22T09:48:22;12.77;;;11.48;;
37288;SDS011;23174;49.462;11.000;2024-03-22T09:50:23;13.30;;;10.80;;
37288;SDS011;23174;49.462;11.000;2024-03-22T09:52:24;11.90;;;10.85;;
37288;SDS011;23174;49.462;11.000;2024-03-22T09:54:25;11.90;;;10.48;;
37288;SDS011;23174;49.462;11.000;2024-03-22T09:56:25;11.45;;;10.32;;
37288;SDS011;23174;49.462;11.000;2024-03-22T09:58:27;13.20;;;10.52;;
37288;SDS011;23174;49.462;11.000;2024-03-22T10:00:28;12.55;;;10.10;;
37288;SDS011;23174;49.462;11.000;2024-03-22T10:02:30;12.85;;;10.18;;
37288;SDS011;23174;49.462;11.000;2024-03-22T10:04:31;11.38;;;10.05;;
37288;SDS011;23174;49.462;11.000;2024-03-22T10:06:31;11.90;;;9.60;;
37288;SDS011;23174;49.462;11.000;2024-03-22T10:08:32;10.65;;;9.05;;
37288;SDS011;23174;49.462;11.000;2024-03-22T10:10:33;9.50;;;8.32;;
37288;SDS011;23174;49.462;11.000;2024-03-22T10:12:34;10.07;;;8.85;;
37288;SDS011;23174;49.462;11.000;2024-03-22T10:14:35;10.60;;;8.40;;
37288;SDS011;23174;49.462;11.000;2024-03-22T10:16:38;8.40;;;7.68;;
37288;SDS011;23174;49.462;11.000;2024-03-22T10:18:39;9.65;;;7.53;;
37288;SDS011;23174;49.462;11.000;2024-03-22T10:20:39;7.82;;;7.13;;
37288;SDS011;23174;49.462;11.000;2024-03-22T10:22:43;8.02;;;7.32;;
37288;SDS011;23174;49.462;11.000;2024-03-22T10:24:48;8.60;;;7.80;;
37288;SDS011;23174;49.462;11.000;2024-03-22T10:26:49;9.05;;;7.50;;
37288;SDS011;23174;49.462;11.000;2024-03-22T10:28:50;8.85;;;7.80;;
37288;SDS011;23174;49.462;11.000;2024-03-22T10:30:51;9.18;;;7.65;;
37288;SDS011;23174;49.462;11.000;2024-03-22T10:32:52;11.68;;;6.78;;
37288;SDS011;23174;49.462;11.000;2024-03-22T10:34:53;8.02;;;6.82;;
37288;SDS011;23174;49.462;11.000;2024-03-22T10:36:57;6.82;;;6.22;;
37288;SDS011;23174;49.462;11.000;2024-03-22T10:39:00;8.23;;;6.57;;
37288;SDS011;23174;49.462;11.000;2024-03-22T10:41:01;7.50;;;6.88;;
37288;SDS011;23174;49.462;11.000;2024-03-22T10:43:03;2.33;;;2.22;;
37288;SDS011;23174;49.462;11.000;2024-03-22T10:45:04;1.45;;;1.20;;
37288;SDS011;23174;49.462;11.000;2024-03-22T10:47:06;1.60;;;1.50;;
37288;SDS011;23174;49.462;11.000;2024-03-22T10:49:09;1.65;;;1.55;;
37288;SDS011;23174;49.462;11.000;2024-03-22T10:51:15;1.33;;;1.23;;
37288;SDS011;23174;49.462;11.000;2024-03-22T10:53:18;1.75;;;1.33;;
37288;SDS011;23174;49.462;11.000;2024-03-22T10:55:26;3.50;;;3.15;;
37288;SDS011;23174;49.462;11.000;2024-03-22T10:57:30;7.20;;;6.60;;
37288;SDS011;23174;49.462;11.000;2024-03-22T10:59:34;6.95;;;6.13;;
37288;SDS011;23174;49.462;11.000;2024-03-22T11:01:35;8.10;;;6.18;;
37288;SDS011;23174;49.462;11.000;2024-03-22T11:06:18;6.82;;;6.22;;
37288;SDS011;23174;49.462;11.000;2024-03-22T11:08:24;6.85;;;6.25;;
37288;SDS011;23174;49.462;11.000;2024-03-22T11:10:28;7.75;;;6.43;;
37288;SDS011;23174;49.462;11.000;2024-03-22T11:12:30;7.35;;;6.65;;
37288;SDS011;23174;49.462;11.000;2024-03-22T11:14:33;7.22;;;6.53;;
37288;SDS011;23174;49.462;11.000;2024-03-22T11:16:33;7.15;;;6.00;;
37288;SDS011;23174;49.462;11.000;2024-03-22T11:18:34;5.93;;;5.43;;
37288;SDS011;23174;49.462;11.000;2024-03-22T11:20:37;6.38;;;5.78;;
37288;SDS011;23174;49.462;11.000;2024-03-22T11:22:38;6.28;;;5.70;;
37288;SDS011;23174;49.462;11.000;2024-03-22T11:24:39;6.10;;;5.47;;
37288;SDS011;23174;49.462;11.000;2024-03-22T11:26:39;6.20;;;5.60;;
37288;SDS011;23174;49.462;11.000;2024-03-22T11:28:39;9.88;;;5.80;;
37288;SDS011;23174;49.462;11.000;2024-03-22T11:30:40;6.00;;;5.40;;
37288;SDS011;23174;49.462;11.000;2024-03-22T11:32:41;6.75;;;5.82;;
37288;SDS011;23174;49.462;11.000;2024-03-22T11:34:45;5.65;;;5.18;;
37288;SDS011;23174;49.462;11.000;2024-03-22T11:36:46;6.00;;;5.40;;
37288;SDS011;23174;49.462;11.000;2024-03-22T11:38:49;6.80;;;5.03;;
37288;SDS011;23174;49.462;11.000;2024-03-22T11:40:52;5.82;;;5.25;;
37288;SDS011;23174;49.462;11.000;2024-03-22T11:42:55;5.60;;;5.10;;
37288;SDS011;23174;49.462;11.000;2024-03-22T11:44:57;5.50;;;5.00;;
37288;SDS011;23174;49.462;11.000;2024-03-22T11:46:58;8.45;;;5.85;;
37288;SDS011;23174;49.462;11.000;2024-03-22T11:48:59;5.60;;;5.20;;